createdAt,value
2018-09-17T00:00:52.677Z,22.60
2018-09-17T00:01:55.770Z,22.60
2018-09-17T00:02:58.928Z,22.60
2018-09-17T00:04:02.315Z,22.60
2018-09-17T00:05:05.471Z,22.50
2018-09-17T00:06:08.662Z,22.50
2018-09-17T00:07:11.818Z,22.60
2018-09-17T00:08:14.976Z,22.50
2018-09-17T00:09:18.543Z,22.60
2018-09-17T00:10:21.679Z,22.60
2018-09-17T00:11:24.701Z,22.60
2018-09-17T00:12:27.784Z,22.60
2018-09-17T00:13:30.872Z,22.50
2018-09-17T00:14:34.164Z,22.60
2018-09-17T00:15:37.235Z,22.60
2018-09-17T00:16:40.303Z,22.50
2018-09-17T00:17:43.380Z,22.60
2018-09-17T00:18:46.508Z,22.60
2018-09-17T00:19:49.605Z,22.60
2018-09-17T00:20:52.746Z,22.60
2018-09-17T00:21:55.744Z,22.60
2018-09-17T00:22:58.835Z,22.60
2018-09-17T00:24:02.040Z,22.50
2018-09-17T00:25:05.201Z,22.60
2018-09-17T00:26:08.357Z,22.60
2018-09-17T00:27:11.456Z,22.60
2018-09-17T00:28:14.512Z,22.60
2018-09-17T00:29:17.597Z,22.60
2018-09-17T00:30:20.673Z,22.50
2018-09-17T00:31:23.779Z,22.50
2018-09-17T00:32:26.851Z,22.60
2018-09-17T00:33:30.004Z,22.60
2018-09-17T00:34:33.150Z,22.50
2018-09-17T00:35:36.248Z,22.50
2018-09-17T00:36:39.326Z,22.50
2018-09-17T00:37:42.566Z,22.50
2018-09-17T00:38:45.662Z,22.50
2018-09-17T00:39:48.949Z,22.50
2018-09-17T00:40:53.212Z,22.50
2018-09-17T00:41:56.329Z,22.50
2018-09-17T00:42:59.419Z,22.50
2018-09-17T00:44:02.525Z,22.50
2018-09-17T00:45:05.716Z,22.50
2018-09-17T00:46:08.887Z,22.50
2018-09-17T00:47:12.012Z,22.50
2018-09-17T00:48:15.142Z,22.50
2018-09-17T00:49:18.232Z,22.50
2018-09-17T00:50:21.508Z,22.50
2018-09-17T00:51:24.503Z,22.50
2018-09-17T00:52:27.578Z,22.50
2018-09-17T00:53:30.696Z,22.50
2018-09-17T00:54:33.767Z,22.50
2018-09-17T00:55:36.808Z,22.50
2018-09-17T00:56:39.969Z,22.50
2018-09-17T00:57:43.129Z,22.50
2018-09-17T00:58:46.278Z,22.50
2018-09-17T00:59:49.343Z,22.50
2018-09-17T01:00:52.325Z,22.50
2018-09-17T01:01:55.350Z,22.50
2018-09-17T01:02:58.457Z,22.50
2018-09-17T01:04:01.569Z,22.50
2018-09-17T01:05:04.812Z,22.50
2018-09-17T01:06:07.973Z,22.50
2018-09-17T01:07:11.034Z,22.50
2018-09-17T01:08:14.185Z,22.50
2018-09-17T01:09:22.580Z,22.50
2018-09-17T01:10:25.864Z,22.50
2018-09-17T01:11:29.895Z,22.50
2018-09-17T01:12:32.884Z,22.50
2018-09-17T01:13:35.982Z,22.50
2018-09-17T01:14:39.060Z,22.50
2018-09-17T01:15:42.135Z,22.50
2018-09-17T01:16:45.312Z,22.50
2018-09-17T01:17:48.372Z,22.50
2018-09-17T01:18:51.515Z,22.50
2018-09-17T01:19:54.555Z,22.50
2018-09-17T01:20:57.692Z,22.50
2018-09-17T01:22:01.054Z,22.50
2018-09-17T01:23:04.276Z,22.50
2018-09-17T01:24:07.648Z,22.50
2018-09-17T01:25:10.941Z,22.50
2018-09-17T01:26:14.112Z,22.50
2018-09-17T01:27:17.330Z,22.50
2018-09-17T01:28:20.431Z,22.20
2018-09-17T01:29:23.625Z,22.50
2018-09-17T01:30:26.752Z,22.50
2018-09-17T01:31:29.884Z,22.50
2018-09-17T01:32:32.940Z,22.50
2018-09-17T01:33:36.002Z,22.50
2018-09-17T01:34:39.271Z,22.50
2018-09-17T01:35:42.328Z,22.50
2018-09-17T01:36:45.501Z,22.50
2018-09-17T01:37:48.562Z,22.50
2018-09-17T01:38:52.218Z,22.50
2018-09-17T01:39:55.392Z,22.50
2018-09-17T01:40:58.513Z,22.50
2018-09-17T01:42:01.751Z,22.50
2018-09-17T01:43:05.084Z,22.50
2018-09-17T01:44:08.629Z,22.50
2018-09-17T01:45:11.758Z,22.50
2018-09-17T01:46:14.926Z,22.50
2018-09-17T01:47:18.117Z,22.50
2018-09-17T01:48:21.313Z,22.50
2018-09-17T01:49:24.609Z,22.50
2018-09-17T01:50:27.635Z,22.50
2018-09-17T01:51:30.797Z,22.50
2018-09-17T01:52:33.892Z,22.50
2018-09-17T01:53:37.064Z,22.50
2018-09-17T01:54:40.636Z,22.50
2018-09-17T01:55:43.678Z,22.40
2018-09-17T01:56:46.788Z,22.50
2018-09-17T01:57:49.972Z,22.50
2018-09-17T01:58:53.106Z,22.50
2018-09-17T01:59:56.243Z,22.50
2018-09-17T02:00:59.435Z,22.40
2018-09-17T02:02:02.532Z,22.40
2018-09-17T02:03:05.599Z,22.50
2018-09-17T02:04:08.841Z,22.50
2018-09-17T02:05:12.085Z,22.40
2018-09-17T02:06:15.220Z,22.50
2018-09-17T02:07:18.392Z,22.40
2018-09-17T02:08:21.476Z,22.50
2018-09-17T02:09:24.776Z,22.40
2018-09-17T02:10:27.964Z,22.40
2018-09-17T02:11:31.345Z,22.40
2018-09-17T02:12:34.501Z,22.40
2018-09-17T02:13:37.917Z,22.40
2018-09-17T02:14:41.516Z,22.40
2018-09-17T02:15:44.564Z,22.40
2018-09-17T02:16:47.588Z,22.40
2018-09-17T02:17:50.712Z,22.40
2018-09-17T02:18:53.820Z,22.40
2018-09-17T02:19:57.108Z,22.40
2018-09-17T02:21:00.187Z,22.40
2018-09-17T02:22:03.229Z,22.40
2018-09-17T02:23:07.198Z,22.40
2018-09-17T02:24:10.764Z,22.40
2018-09-17T02:25:13.847Z,22.40
2018-09-17T02:26:16.936Z,22.40
2018-09-17T02:27:19.992Z,22.40
2018-09-17T02:28:23.052Z,22.40
2018-09-17T02:29:26.325Z,22.40
2018-09-17T02:30:29.320Z,22.40
2018-09-17T02:31:32.362Z,22.40
2018-09-17T02:32:35.445Z,22.40
2018-09-17T02:33:38.492Z,22.40
2018-09-17T02:34:41.527Z,22.40
2018-09-17T02:35:44.984Z,22.40
2018-09-17T02:36:48.180Z,22.40
2018-09-17T02:37:51.353Z,22.40
2018-09-17T02:38:54.641Z,22.40
2018-09-17T02:39:57.897Z,22.40
2018-09-17T02:41:00.970Z,22.40
2018-09-17T02:42:04.069Z,22.40
2018-09-17T02:43:07.128Z,22.40
2018-09-17T02:44:10.460Z,22.40
2018-09-17T02:45:13.537Z,22.40
2018-09-17T02:46:16.744Z,22.40
2018-09-17T02:47:19.980Z,22.40
2018-09-17T02:48:23.112Z,22.40
2018-09-17T02:49:26.296Z,22.40
2018-09-17T02:50:29.383Z,22.40
2018-09-17T02:51:32.454Z,22.40
2018-09-17T02:52:35.708Z,22.40
2018-09-17T02:53:39.015Z,22.40
2018-09-17T02:54:42.107Z,22.40
2018-09-17T02:55:45.263Z,22.40
2018-09-17T02:56:48.423Z,22.40
2018-09-17T02:57:51.709Z,22.40
2018-09-17T02:58:55.000Z,22.40
2018-09-17T02:59:58.077Z,22.40
2018-09-17T03:01:01.240Z,22.40
2018-09-17T03:02:04.382Z,22.40
2018-09-17T03:03:07.709Z,22.40
2018-09-17T03:04:10.776Z,22.40
2018-09-17T03:05:13.817Z,22.40
2018-09-17T03:06:16.944Z,22.40
2018-09-17T03:07:19.993Z,22.40
2018-09-17T03:08:23.157Z,22.40
2018-09-17T03:09:26.369Z,22.40
2018-09-17T03:10:29.413Z,22.40
2018-09-17T03:11:32.407Z,22.40
2018-09-17T03:12:35.470Z,22.40
2018-09-17T03:13:38.587Z,22.40
2018-09-17T03:14:41.723Z,22.40
2018-09-17T03:15:51.554Z,22.40
2018-09-17T03:17:04.363Z,22.40
2018-09-17T03:18:07.527Z,22.40
2018-09-17T03:19:10.628Z,22.30
2018-09-17T03:20:13.700Z,22.30
2018-09-17T03:21:16.769Z,22.30
2018-09-17T03:22:19.871Z,22.30
2018-09-17T03:23:23.005Z,22.30
2018-09-17T03:24:26.105Z,22.30
2018-09-17T03:25:29.135Z,22.30
2018-09-17T03:26:32.248Z,22.30
2018-09-17T03:27:35.243Z,22.30
2018-09-17T03:28:38.309Z,22.30
2018-09-17T03:29:41.307Z,22.30
2018-09-17T03:30:44.409Z,22.30
2018-09-17T03:31:47.532Z,22.30
2018-09-17T03:32:50.559Z,22.30
2018-09-17T03:33:53.624Z,22.30
2018-09-17T03:34:56.691Z,22.30
2018-09-17T03:35:59.768Z,22.30
2018-09-17T03:37:02.811Z,22.30
2018-09-17T03:38:22.753Z,22.30
2018-09-17T03:39:25.873Z,22.30
2018-09-17T03:40:28.852Z,22.30
2018-09-17T03:41:32.026Z,22.30
2018-09-17T03:42:34.991Z,22.30
2018-09-17T03:43:39.361Z,22.30
2018-09-17T03:44:42.362Z,22.30
2018-09-17T03:45:45.444Z,22.30
2018-09-17T03:46:48.536Z,22.30
2018-09-17T03:47:51.569Z,22.30
2018-09-17T03:48:54.664Z,22.30
2018-09-17T03:49:57.723Z,22.30
2018-09-17T03:51:01.497Z,22.30
2018-09-17T03:52:05.525Z,22.30
2018-09-17T03:53:08.673Z,22.30
2018-09-17T03:54:11.639Z,22.30
2018-09-17T03:55:14.686Z,22.30
2018-09-17T03:56:17.817Z,22.30
2018-09-17T03:57:20.877Z,22.30
2018-09-17T03:58:23.994Z,22.30
2018-09-17T03:59:27.076Z,22.30
2018-09-17T04:00:30.288Z,22.30
2018-09-17T04:01:33.351Z,22.30
2018-09-17T04:02:36.451Z,22.30
2018-09-17T04:03:39.497Z,22.30
2018-09-17T04:04:42.540Z,22.30
2018-09-17T04:05:45.587Z,22.30
2018-09-17T04:06:48.660Z,22.30
2018-09-17T04:07:51.749Z,22.30
2018-09-17T04:08:54.785Z,22.30
2018-09-17T04:09:57.821Z,22.30
2018-09-17T04:11:00.946Z,22.30
2018-09-17T04:12:03.952Z,22.30
2018-09-17T04:13:06.979Z,22.30
2018-09-17T04:14:10.124Z,22.30
2018-09-17T04:15:13.149Z,22.30
2018-09-17T04:16:16.248Z,22.30
2018-09-17T04:17:19.427Z,22.30
2018-09-17T04:18:22.497Z,22.30
2018-09-17T04:19:25.515Z,22.30
2018-09-17T04:20:28.589Z,22.30
2018-09-17T04:21:31.631Z,22.30
2018-09-17T04:22:34.738Z,22.30
2018-09-17T04:23:38.693Z,22.30
2018-09-17T04:24:41.794Z,22.30
2018-09-17T04:25:44.802Z,22.30
2018-09-17T04:26:47.865Z,22.30
2018-09-17T04:27:50.903Z,22.30
2018-09-17T04:28:53.925Z,22.30
2018-09-17T04:29:57.052Z,22.30
2018-09-17T04:31:00.076Z,22.30
2018-09-17T04:32:03.049Z,22.30
2018-09-17T04:33:07.075Z,22.30
2018-09-17T04:34:10.060Z,22.30
2018-09-17T04:35:13.124Z,22.30
2018-09-17T04:36:16.130Z,22.30
2018-09-17T04:37:19.172Z,22.20
2018-09-17T04:38:22.156Z,22.30
2018-09-17T04:39:26.065Z,22.30
2018-09-17T04:40:29.168Z,22.30
2018-09-17T04:41:32.172Z,22.30
2018-09-17T04:42:35.895Z,22.20
2018-09-17T04:43:38.965Z,22.20
2018-09-17T04:44:42.040Z,22.20
2018-09-17T04:45:45.040Z,22.20
2018-09-17T04:46:48.120Z,22.20
2018-09-17T04:47:51.256Z,22.20
2018-09-17T04:48:54.383Z,22.20
2018-09-17T04:49:57.485Z,22.20
2018-09-17T04:51:00.450Z,22.20
2018-09-17T04:52:03.497Z,22.20
2018-09-17T04:53:06.512Z,22.20
2018-09-17T04:54:09.492Z,22.20
2018-09-17T04:55:12.444Z,22.20
2018-09-17T04:56:16.684Z,22.20
2018-09-17T04:57:20.062Z,22.20
2018-09-17T04:58:23.064Z,22.20
2018-09-17T04:59:26.080Z,22.20
2018-09-17T05:00:29.108Z,22.20
2018-09-17T05:01:32.128Z,22.20
2018-09-17T05:02:35.176Z,22.20
2018-09-17T05:03:38.227Z,22.20
2018-09-17T05:04:41.236Z,22.20
2018-09-17T05:05:44.272Z,22.20
2018-09-17T05:06:47.318Z,22.20
2018-09-17T05:07:50.952Z,22.20
2018-09-17T05:08:54.100Z,22.20
2018-09-17T05:09:57.076Z,22.20
2018-09-17T05:11:00.076Z,22.20
2018-09-17T05:12:03.093Z,22.20
2018-09-17T05:13:06.390Z,22.20
2018-09-17T05:14:09.396Z,22.20
2018-09-17T05:15:13.573Z,22.20
2018-09-17T05:16:16.612Z,22.20
2018-09-17T05:17:19.617Z,22.20
2018-09-17T05:18:22.622Z,22.20
2018-09-17T05:19:25.708Z,22.20
2018-09-17T05:20:28.831Z,22.20
2018-09-17T05:21:31.844Z,22.20
2018-09-17T05:22:34.838Z,22.20
2018-09-17T05:23:37.917Z,22.20
2018-09-17T05:24:41.002Z,22.20
2018-09-17T05:25:44.060Z,22.20
2018-09-17T05:26:47.120Z,22.20
2018-09-17T05:27:50.137Z,22.20
2018-09-17T05:28:53.271Z,22.20
2018-09-17T05:29:56.299Z,22.20
2018-09-17T05:30:59.283Z,22.20
2018-09-17T05:32:02.340Z,22.20
2018-09-17T05:33:05.361Z,22.20
2018-09-17T05:34:08.399Z,22.20
2018-09-17T05:35:11.574Z,22.20
2018-09-17T05:36:14.475Z,22.20
2018-09-17T05:37:17.649Z,22.20
2018-09-17T05:38:20.620Z,22.20
2018-09-17T05:39:23.680Z,22.20
2018-09-17T05:40:26.772Z,22.20
2018-09-17T05:41:29.795Z,22.20
2018-09-17T05:42:32.843Z,22.20
2018-09-17T05:43:36.255Z,22.20
2018-09-17T05:44:39.439Z,22.20
2018-09-17T05:45:42.501Z,22.20
2018-09-17T05:46:45.547Z,22.20
2018-09-17T05:47:48.630Z,22.20
2018-09-17T05:48:51.678Z,22.20
2018-09-17T05:49:54.678Z,22.20
2018-09-17T05:50:57.713Z,22.20
2018-09-17T05:52:00.748Z,22.20
2018-09-17T05:53:03.782Z,22.20
2018-09-17T05:54:06.831Z,22.10
2018-09-17T05:55:09.866Z,22.20
2018-09-17T05:56:12.950Z,22.20
2018-09-17T05:57:16.063Z,22.20
2018-09-17T05:58:19.114Z,22.20
2018-09-17T05:59:22.191Z,22.20
2018-09-17T06:00:25.337Z,22.20
2018-09-17T06:01:28.360Z,22.20
2018-09-17T06:02:31.352Z,22.20
2018-09-17T06:03:34.328Z,22.20
2018-09-17T06:04:37.313Z,22.20
2018-09-17T06:05:40.456Z,22.20
2018-09-17T06:06:43.504Z,22.20
2018-09-17T06:07:46.621Z,22.20
2018-09-17T06:08:49.662Z,22.20
2018-09-17T06:09:52.755Z,22.20
2018-09-17T06:10:55.829Z,22.20
2018-09-17T06:11:58.903Z,22.20
2018-09-17T06:13:01.913Z,22.20
2018-09-17T06:14:04.980Z,22.20
2018-09-17T06:15:07.960Z,22.20
2018-09-17T06:16:10.968Z,22.20
2018-09-17T06:17:14.085Z,22.20
2018-09-17T06:18:17.035Z,22.20
2018-09-17T06:19:20.052Z,22.20
2018-09-17T06:20:23.089Z,22.20
2018-09-17T06:21:26.188Z,22.20
2018-09-17T06:22:29.272Z,22.20
2018-09-17T06:23:32.299Z,22.20
2018-09-17T06:24:35.307Z,22.20
2018-09-17T06:25:38.302Z,22.20
2018-09-17T06:26:41.449Z,22.20
2018-09-17T06:27:44.411Z,22.20
2018-09-17T06:28:47.516Z,22.20
2018-09-17T06:29:50.459Z,22.20
2018-09-17T06:30:53.461Z,22.20
2018-09-17T06:31:56.512Z,22.20
2018-09-17T06:32:59.534Z,22.20
2018-09-17T06:34:02.580Z,22.20
2018-09-17T06:35:05.560Z,22.20
2018-09-17T06:36:08.787Z,22.20
2018-09-17T06:37:11.843Z,22.20
2018-09-17T06:38:14.983Z,22.20
2018-09-17T06:39:17.975Z,22.20
2018-09-17T06:40:21.053Z,22.20
2018-09-17T06:41:24.741Z,22.20
2018-09-17T06:42:27.743Z,22.20
2018-09-17T06:43:30.756Z,22.20
2018-09-17T06:44:33.805Z,22.20
2018-09-17T06:45:36.821Z,22.20
2018-09-17T06:46:39.908Z,22.20
2018-09-17T06:47:42.956Z,22.20
2018-09-17T06:48:45.931Z,22.20
2018-09-17T06:49:49.216Z,22.20
2018-09-17T06:50:52.199Z,22.20
2018-09-17T06:51:55.253Z,22.20
2018-09-17T06:52:58.265Z,22.20
2018-09-17T06:54:01.376Z,22.20
2018-09-17T06:55:04.359Z,22.20
2018-09-17T06:56:07.393Z,22.20
2018-09-17T06:57:10.407Z,22.20
2018-09-17T06:58:13.450Z,22.20
2018-09-17T06:59:16.419Z,22.20
2018-09-17T07:00:19.481Z,22.20
2018-09-17T07:01:22.483Z,22.20
2018-09-17T07:02:25.578Z,22.20
2018-09-17T07:03:28.528Z,22.20
2018-09-17T07:04:31.515Z,22.20
2018-09-17T07:05:34.544Z,22.20
2018-09-17T07:06:37.773Z,22.20
2018-09-17T07:07:40.823Z,22.20
2018-09-17T07:08:43.832Z,22.20
2018-09-17T07:09:46.873Z,22.20
2018-09-17T07:10:49.916Z,22.20
2018-09-17T07:11:53.000Z,22.30
2018-09-17T07:12:56.077Z,22.30
2018-09-17T07:13:59.131Z,22.30
2018-09-17T07:15:02.201Z,22.30
2018-09-17T07:16:05.387Z,22.30
2018-09-17T07:17:08.487Z,22.30
2018-09-17T07:18:11.542Z,22.30
2018-09-17T07:19:14.575Z,22.30
2018-09-17T07:20:17.694Z,22.30
2018-09-17T07:21:20.768Z,22.40
2018-09-17T07:22:23.904Z,22.40
2018-09-17T07:23:26.935Z,22.40
2018-09-17T07:24:29.976Z,22.40
2018-09-17T07:25:33.002Z,22.40
2018-09-17T07:26:35.981Z,22.40
2018-09-17T07:27:39.139Z,22.40
2018-09-17T07:28:42.152Z,22.50
2018-09-17T07:29:45.288Z,22.50
2018-09-17T07:30:48.448Z,22.50
2018-09-17T07:31:51.558Z,22.50
2018-09-17T07:32:54.570Z,22.50
2018-09-17T07:33:57.740Z,22.50
2018-09-17T07:35:00.797Z,22.50
2018-09-17T07:36:03.965Z,22.50
2018-09-17T07:37:07.019Z,22.50
2018-09-17T07:38:10.020Z,22.60
2018-09-17T07:39:13.017Z,22.60
2018-09-17T07:40:16.012Z,22.60
2018-09-17T07:41:19.144Z,22.50
2018-09-17T07:42:22.157Z,22.50
2018-09-17T07:43:25.135Z,22.50
2018-09-17T07:44:28.287Z,22.50
2018-09-17T07:45:31.307Z,22.50
2018-09-17T07:46:34.565Z,22.50
2018-09-17T07:47:37.636Z,22.50
2018-09-17T07:48:40.628Z,22.50
2018-09-17T07:49:43.637Z,22.50
2018-09-17T07:50:46.660Z,22.50
2018-09-17T07:51:49.641Z,22.50
2018-09-17T07:52:52.640Z,22.50
2018-09-17T07:53:55.601Z,22.50
2018-09-17T07:54:58.658Z,22.50
2018-09-17T07:56:01.652Z,22.50
2018-09-17T07:57:04.659Z,22.50
2018-09-17T07:58:07.664Z,22.50
2018-09-17T07:59:10.793Z,22.50
2018-09-17T08:00:13.788Z,22.50
2018-09-17T08:01:16.826Z,22.50
2018-09-17T08:02:19.817Z,22.50
2018-09-17T08:03:22.780Z,22.60
2018-09-17T08:04:25.790Z,22.60
2018-09-17T08:05:28.935Z,22.60
2018-09-17T08:06:31.920Z,22.60
2018-09-17T08:07:35.076Z,22.60
2018-09-17T08:08:38.102Z,22.60
2018-09-17T08:09:41.168Z,22.60
2018-09-17T08:10:44.196Z,22.60
2018-09-17T08:11:47.201Z,22.60
2018-09-17T08:12:50.489Z,22.70
2018-09-17T08:13:53.563Z,22.70
2018-09-17T08:14:56.580Z,22.70
2018-09-17T08:15:59.637Z,22.70
2018-09-17T08:17:02.688Z,22.70
2018-09-17T08:18:05.739Z,22.70
2018-09-17T08:19:08.771Z,22.70
2018-09-17T08:20:12.029Z,22.70
2018-09-17T08:21:15.151Z,22.70
2018-09-17T08:22:18.127Z,22.70
2018-09-17T08:23:21.095Z,22.70
2018-09-17T08:24:24.129Z,22.70
2018-09-17T08:25:27.169Z,22.70
2018-09-17T08:26:31.374Z,22.70
2018-09-17T08:27:34.480Z,22.70
2018-09-17T08:28:37.593Z,22.70
2018-09-17T08:29:40.597Z,22.70
2018-09-17T08:30:43.596Z,22.70
2018-09-17T08:31:46.621Z,22.70
2018-09-17T08:32:49.699Z,22.70
2018-09-17T08:33:52.745Z,22.70
2018-09-17T08:34:55.821Z,22.80
2018-09-17T08:35:58.897Z,22.90
2018-09-17T08:37:02.039Z,23.00
2018-09-17T08:38:05.059Z,23.10
2018-09-17T08:39:11.500Z,23.20
2018-09-17T08:40:14.612Z,23.20
2018-09-17T08:41:17.612Z,23.30
2018-09-17T08:42:20.587Z,23.40
2018-09-17T08:43:23.579Z,23.50
2018-09-17T08:44:26.631Z,23.50
2018-09-17T08:45:29.709Z,23.60
2018-09-17T08:46:32.732Z,23.60
2018-09-17T08:47:35.797Z,23.70
2018-09-17T08:48:38.834Z,23.70
2018-09-17T08:49:41.823Z,23.80
2018-09-17T08:50:44.856Z,23.80
2018-09-17T08:51:47.832Z,23.80
2018-09-17T08:52:50.840Z,23.90
2018-09-17T08:53:53.837Z,23.90
2018-09-17T08:55:02.204Z,24.00
2018-09-17T08:56:10.992Z,24.00
2018-09-17T08:57:19.604Z,24.00
2018-09-17T08:58:25.436Z,23.70
2018-09-17T08:59:33.872Z,24.10
2018-09-17T09:00:42.276Z,24.10
2018-09-17T09:01:50.756Z,24.10
2018-09-17T09:03:00.941Z,24.10
2018-09-17T09:04:09.327Z,24.20
2018-09-17T09:05:17.900Z,24.20
2018-09-17T09:06:25.201Z,24.20
2018-09-17T09:07:31.056Z,24.20
2018-09-17T09:08:34.036Z,24.20
2018-09-17T09:09:37.020Z,24.20
2018-09-17T09:10:45.452Z,24.20
2018-09-17T09:11:54.004Z,24.20
2018-09-17T09:13:02.805Z,24.20
2018-09-17T09:14:09.417Z,24.20
2018-09-17T09:15:18.526Z,24.20
2018-09-17T09:16:21.779Z,24.20
2018-09-17T09:17:24.840Z,24.20
2018-09-17T09:18:27.843Z,24.20
2018-09-17T09:19:30.930Z,24.20
2018-09-17T09:20:33.996Z,24.20
2018-09-17T09:21:37.015Z,24.20
2018-09-17T09:22:40.032Z,24.20
2018-09-17T09:23:43.073Z,24.10
2018-09-17T09:24:46.160Z,24.10
2018-09-17T09:25:49.207Z,24.10
2018-09-17T09:26:52.496Z,24.10
2018-09-17T09:27:55.588Z,24.10
2018-09-17T09:28:58.567Z,24.10
2018-09-17T09:30:01.575Z,24.10
2018-09-17T09:31:04.632Z,24.10
2018-09-17T09:32:07.667Z,24.10
2018-09-17T09:33:10.655Z,24.10
2018-09-17T09:34:13.642Z,24.10
2018-09-17T09:35:16.664Z,24.10
2018-09-17T09:36:19.716Z,24.00
2018-09-17T09:37:22.715Z,24.00
2018-09-17T09:38:25.753Z,24.00
2018-09-17T09:39:28.803Z,24.00
2018-09-17T09:40:31.814Z,24.00
2018-09-17T09:41:34.811Z,24.00
2018-09-17T09:42:37.903Z,24.00
2018-09-17T09:43:40.896Z,24.00
2018-09-17T09:44:43.940Z,24.00
2018-09-17T09:45:46.939Z,24.00
2018-09-17T09:46:49.927Z,23.90
2018-09-17T09:47:52.907Z,23.90
2018-09-17T09:48:55.911Z,23.90
2018-09-17T09:49:59.132Z,23.90
2018-09-17T09:51:02.140Z,23.90
2018-09-17T09:52:05.185Z,23.90
2018-09-17T09:53:08.208Z,23.90
2018-09-17T09:54:11.200Z,24.00
2018-09-17T09:55:14.194Z,24.00
2018-09-17T09:56:17.257Z,23.90
2018-09-17T09:57:20.257Z,24.00
2018-09-17T09:58:23.235Z,24.00
2018-09-17T09:59:26.270Z,24.00
2018-09-17T10:00:34.720Z,24.00
2018-09-17T10:01:43.205Z,24.00
2018-09-17T10:02:47.327Z,24.00
2018-09-17T10:03:55.708Z,24.00
2018-09-17T10:04:58.771Z,24.00
2018-09-17T10:06:02.250Z,24.00
2018-09-17T10:07:05.256Z,24.00
2018-09-17T10:08:08.266Z,24.00
2018-09-17T10:09:16.781Z,24.00
2018-09-17T10:10:25.200Z,24.00
2018-09-17T10:11:33.828Z,24.00
2018-09-17T10:12:42.264Z,24.00
2018-09-17T10:13:50.775Z,24.00
2018-09-17T10:14:59.174Z,24.00
2018-09-17T10:16:07.699Z,24.00
2018-09-17T10:17:16.264Z,24.00
2018-09-17T10:18:24.679Z,24.00
2018-09-17T10:19:27.740Z,24.00
2018-09-17T10:20:30.748Z,24.00
2018-09-17T10:21:33.765Z,24.00
2018-09-17T10:22:36.771Z,24.00
2018-09-17T10:23:39.817Z,24.00
2018-09-17T10:24:42.835Z,24.00
2018-09-17T10:25:45.868Z,24.00
2018-09-17T10:26:48.830Z,24.00
2018-09-17T10:27:51.808Z,24.00
2018-09-17T10:28:54.825Z,24.00
2018-09-17T10:29:57.887Z,24.00
2018-09-17T10:31:00.841Z,24.10
2018-09-17T10:32:04.863Z,24.10
2018-09-17T10:33:07.901Z,24.10
2018-09-17T10:34:11.109Z,24.00
2018-09-17T10:35:14.085Z,24.10
2018-09-17T10:36:17.144Z,24.10
2018-09-17T10:37:20.161Z,24.10
2018-09-17T10:38:23.167Z,24.10
2018-09-17T10:39:26.196Z,24.10
2018-09-17T10:40:29.201Z,24.10
2018-09-17T10:41:32.246Z,24.10
2018-09-17T10:42:35.282Z,24.10
2018-09-17T10:43:38.292Z,24.10
2018-09-17T10:44:41.294Z,24.10
2018-09-17T10:45:44.321Z,24.10
2018-09-17T10:46:47.655Z,24.10
2018-09-17T10:47:50.715Z,24.00
2018-09-17T10:48:53.739Z,24.10
2018-09-17T10:49:57.035Z,24.10
2018-09-17T10:51:00.320Z,24.00
2018-09-17T10:52:03.534Z,24.00
2018-09-17T10:53:06.910Z,24.00
2018-09-17T10:54:10.219Z,24.00
2018-09-17T10:55:13.443Z,24.00
2018-09-17T10:56:16.536Z,24.00
2018-09-17T10:57:19.658Z,24.00
2018-09-17T10:58:22.696Z,24.00
2018-09-17T10:59:25.764Z,23.90
2018-09-17T11:00:28.774Z,23.90
2018-09-17T11:01:31.827Z,23.90
2018-09-17T11:02:34.962Z,23.90
2018-09-17T11:03:38.028Z,23.90
2018-09-17T11:04:41.073Z,23.90
2018-09-17T11:05:44.933Z,23.90
2018-09-17T11:06:48.616Z,23.90
2018-09-17T11:07:51.684Z,23.90
2018-09-17T11:08:54.699Z,23.90
2018-09-17T11:09:57.756Z,23.90
2018-09-17T11:11:00.732Z,23.90
2018-09-17T11:12:03.729Z,23.90
2018-09-17T11:13:06.724Z,23.90
2018-09-17T11:14:10.166Z,23.90
2018-09-17T11:15:13.179Z,23.90
2018-09-17T11:16:16.234Z,23.90
2018-09-17T11:17:19.292Z,23.90
2018-09-17T11:18:22.281Z,23.90
2018-09-17T11:19:25.343Z,23.90
2018-09-17T11:20:28.372Z,23.90
2018-09-17T11:21:31.376Z,23.90
2018-09-17T11:22:34.419Z,23.90
2018-09-17T11:23:37.399Z,23.90
2018-09-17T11:24:40.410Z,23.90
2018-09-17T11:25:43.395Z,23.90
2018-09-17T11:26:46.452Z,23.90
2018-09-17T11:27:49.476Z,23.90
2018-09-17T11:28:52.525Z,23.90
2018-09-17T11:29:55.520Z,23.90
2018-09-17T11:30:58.518Z,23.90
2018-09-17T11:32:01.608Z,23.90
2018-09-17T11:33:04.632Z,24.00
2018-09-17T11:34:07.705Z,24.00
2018-09-17T11:35:10.705Z,24.00
2018-09-17T11:36:13.872Z,24.00
2018-09-17T11:37:16.952Z,24.00
2018-09-17T11:38:19.996Z,24.00
2018-09-17T11:39:23.012Z,24.00
2018-09-17T11:40:26.095Z,24.00
2018-09-17T11:41:29.145Z,24.00
2018-09-17T11:42:32.226Z,24.00
2018-09-17T11:43:35.259Z,24.00
2018-09-17T11:44:38.233Z,24.00
2018-09-17T11:45:41.262Z,24.00
2018-09-17T11:46:44.268Z,24.00
2018-09-17T11:47:47.239Z,23.90
2018-09-17T11:48:50.313Z,23.90
2018-09-17T11:49:53.313Z,24.00
2018-09-17T11:50:56.471Z,23.90
2018-09-17T11:51:59.487Z,23.90
2018-09-17T11:53:02.528Z,23.90
2018-09-17T11:54:05.638Z,23.90
2018-09-17T11:55:08.632Z,23.90
2018-09-17T11:56:11.636Z,23.90
2018-09-17T11:57:14.847Z,23.90
2018-09-17T11:58:17.884Z,23.90
2018-09-17T11:59:20.868Z,23.90
2018-09-17T12:00:29.387Z,23.90
2018-09-17T12:01:37.872Z,23.90
2018-09-17T12:02:45.179Z,23.90
2018-09-17T12:03:53.739Z,23.90
2018-09-17T12:04:58.556Z,23.90
2018-09-17T12:06:02.905Z,23.90
2018-09-17T12:07:11.276Z,23.90
2018-09-17T12:08:16.391Z,23.90
2018-09-17T12:09:19.460Z,23.90
2018-09-17T12:10:22.476Z,23.60
2018-09-17T12:11:25.446Z,23.80
2018-09-17T12:12:28.442Z,23.80
2018-09-17T12:13:31.879Z,23.80
2018-09-17T12:14:35.485Z,23.80
2018-09-17T12:15:41.612Z,23.80
2018-09-17T12:16:44.692Z,23.90
2018-09-17T12:17:47.743Z,23.90
2018-09-17T12:18:50.734Z,23.90
2018-09-17T12:19:53.839Z,23.90
2018-09-17T12:20:56.836Z,23.90
2018-09-17T12:21:59.876Z,23.90
2018-09-17T12:23:02.897Z,23.90
2018-09-17T12:24:06.169Z,23.90
2018-09-17T12:25:09.272Z,23.90
2018-09-17T12:26:12.328Z,23.90
2018-09-17T12:27:15.406Z,23.90
2018-09-17T12:28:18.415Z,23.90
2018-09-17T12:29:22.066Z,23.90
2018-09-17T12:30:25.077Z,23.90
2018-09-17T12:31:28.041Z,23.80
2018-09-17T12:32:31.066Z,23.90
2018-09-17T12:33:34.123Z,23.90
2018-09-17T12:34:37.114Z,23.80
2018-09-17T12:35:40.129Z,23.90
2018-09-17T12:36:43.096Z,23.90
2018-09-17T12:37:46.119Z,23.80
2018-09-17T12:38:49.153Z,23.80
2018-09-17T12:39:52.152Z,23.80
2018-09-17T12:40:55.221Z,23.80
2018-09-17T12:41:58.403Z,23.80
2018-09-17T12:43:01.416Z,23.80
2018-09-17T12:44:04.455Z,23.80
2018-09-17T12:45:07.477Z,23.80
2018-09-17T12:46:10.572Z,23.80
2018-09-17T12:47:13.616Z,23.80
2018-09-17T12:48:16.604Z,23.80
2018-09-17T12:49:19.688Z,23.80
2018-09-17T12:50:22.780Z,23.80
2018-09-17T12:51:25.820Z,23.80
2018-09-17T12:52:28.864Z,23.80
2018-09-17T12:53:31.862Z,23.80
2018-09-17T12:54:34.830Z,23.80
2018-09-17T12:55:37.896Z,23.80
2018-09-17T12:56:41.012Z,23.80
2018-09-17T12:57:44.069Z,23.80
2018-09-17T12:58:47.096Z,23.80
2018-09-17T12:59:50.095Z,23.80
2018-09-17T13:00:53.212Z,23.80
2018-09-17T13:01:56.286Z,23.80
2018-09-17T13:02:59.356Z,23.80
2018-09-17T13:04:02.356Z,23.80
2018-09-17T13:05:05.429Z,23.80
2018-09-17T13:06:08.451Z,23.80
2018-09-17T13:07:11.566Z,23.80
2018-09-17T13:08:14.674Z,23.80
2018-09-17T13:09:17.692Z,23.80
2018-09-17T13:10:20.723Z,23.80
2018-09-17T13:11:23.780Z,23.80
2018-09-17T13:12:26.924Z,23.80
2018-09-17T13:13:30.592Z,23.80
2018-09-17T13:14:33.639Z,23.80
2018-09-17T13:15:40.915Z,23.80
2018-09-17T13:16:43.900Z,23.80
2018-09-17T13:17:46.944Z,23.80
2018-09-17T13:18:50.021Z,23.80
2018-09-17T13:19:53.045Z,23.80
2018-09-17T13:20:56.084Z,23.80
2018-09-17T13:21:59.141Z,23.80
2018-09-17T13:23:02.143Z,23.80
2018-09-17T13:24:05.650Z,23.90
2018-09-17T13:25:08.638Z,23.90
2018-09-17T13:26:11.706Z,23.90
2018-09-17T13:27:14.685Z,23.90
2018-09-17T13:28:17.698Z,23.90
2018-09-17T13:29:20.741Z,23.90
2018-09-17T13:30:23.766Z,23.90
2018-09-17T13:31:26.772Z,23.90
2018-09-17T13:32:29.792Z,24.00
2018-09-17T13:33:32.852Z,24.00
2018-09-17T13:34:35.847Z,24.00
2018-09-17T13:35:38.900Z,24.00
2018-09-17T13:36:41.963Z,24.00